首页
METAR-TAF:

METAR-TAF

机场 :

凯斯门特机场

都柏林, 爱尔兰

纬度: 53-18-06N, 经度: 6-27-04W, 海拔: 97米

当前天气观测

该预报发布于34分钟前的09:00 UTC
风速7节,风向东转东北
温度 14°C
湿度 63%
气压 1014 hPa
能见度10公里或以上
少量云层高于2000英尺
多云层高于11000英尺
多云层高于20000英尺

METAR: EIME 190900Z 07007KT 9999 FEW020 BKN110 BKN200 14/07 Q1014

时间: 10:34 (09:34 UTC)

预报

该预报发布于1小时和34分钟前的08:00 UTC
预报有效从19日的 09点(UTC)到 19日的 18点(UTC)
风速6节,风向东转东南
能见度10公里或以上
少量云层高于2000英尺
成为
从 19日的 13点(UTC)到 19日的 15点(UTC)
风速10节,风向南转南东

TAF: EIME 190800Z 1909/1918 11006KT 9999 FEW020 BECMG 1913/1915 15010KT

超过4000个机场的气象观测和天气预报(METAR&TAF报告)。

可查询的气象台以黄色和红色小点在地图上表示。

将鼠标移到小点上方,可查看气象台名称。

然后点击查看天气观测和预报。

如需切换地图:点击带黑十字的绿色按钮放大地图;点击带横线的绿色按钮缩小地图;或者点击绿色箭头查看邻近地区的地图。


METAR-TAF: